createdAt,value
2022-10-28T00:00:31.896Z,13.27
2022-10-28T00:04:35.107Z,15.10
2022-10-28T00:08:36.611Z,21.20
2022-10-28T00:12:38.237Z,14.20
2022-10-28T00:16:40.640Z,11.53
2022-10-28T00:20:43.476Z,18.80
2022-10-28T00:24:45.003Z,12.70
2022-10-28T00:28:48.259Z,8.93
2022-10-28T00:32:49.928Z,13.00
2022-10-28T00:36:52.924Z,10.47
2022-10-28T00:40:54.352Z,11.33
2022-10-28T00:44:58.399Z,11.53
2022-10-28T00:49:04.171Z,15.47
2022-10-28T00:53:14.064Z,10.20
2022-10-28T00:57:18.812Z,16.80
2022-10-28T01:01:20.284Z,21.00
2022-10-28T01:05:27.622Z,13.00
2022-10-28T01:09:30.408Z,23.97
2022-10-28T01:13:43.727Z,26.87
2022-10-28T01:17:54.951Z,42.33
2022-10-28T01:22:13.236Z,45.33
2022-10-28T01:26:38.919Z,22.67
2022-10-28T01:31:10.422Z,23.57
2022-10-28T01:35:18.938Z,25.37
2022-10-28T01:39:29.115Z,16.17
2022-10-28T01:43:36.300Z,18.27
2022-10-28T01:47:47.140Z,23.10
2022-10-28T01:51:53.687Z,20.07
2022-10-28T01:55:59.215Z,15.13
2022-10-28T02:00:02.034Z,19.80
2022-10-28T02:04:08.083Z,13.30
2022-10-28T02:08:27.851Z,22.03
2022-10-28T02:12:31.880Z,45.53
2022-10-28T02:16:43.688Z,38.03
2022-10-28T02:20:52.791Z,31.23
2022-10-28T02:25:01.171Z,19.37
2022-10-28T02:29:07.581Z,16.07
2022-10-28T02:33:12.664Z,20.63
2022-10-28T02:37:20.851Z,8.50
2022-10-28T02:41:26.796Z,20.20
2022-10-28T02:45:34.564Z,11.53
2022-10-28T02:49:42.133Z,22.90
2022-10-28T02:53:55.427Z,25.30
2022-10-28T02:57:57.363Z,47.57
2022-10-28T03:01:59.108Z,36.63
2022-10-28T03:06:00.832Z,48.33
2022-10-28T03:10:04.163Z,46.97
2022-10-28T03:14:10.669Z,28.10
2022-10-28T03:18:14.651Z,23.27
2022-10-28T03:22:16.311Z,21.20
2022-10-28T03:26:19.055Z,25.07
2022-10-28T03:30:20.695Z,24.17
2022-10-28T03:34:22.171Z,20.60
2022-10-28T03:38:23.699Z,11.13
2022-10-28T03:42:26.475Z,14.50
2022-10-28T03:46:29.134Z,18.50
2022-10-28T03:50:32.687Z,20.37
2022-10-28T03:54:34.072Z,13.27
2022-10-28T03:58:40.895Z,18.70
2022-10-28T04:02:42.771Z,14.23
2022-10-28T04:06:44.196Z,13.07
2022-10-28T04:10:47.633Z,12.23
2022-10-28T04:14:50.687Z,20.23
2022-10-28T04:18:52.265Z,15.30
2022-10-28T04:22:56.229Z,15.57
2022-10-28T04:26:58.711Z,15.67
2022-10-28T04:31:01.655Z,13.30
2022-10-28T04:35:03.561Z,11.17
2022-10-28T04:39:05.117Z,13.63
2022-10-28T04:43:08.582Z,16.30
2022-10-28T04:47:13.139Z,15.27
2022-10-28T04:51:14.689Z,15.43
2022-10-28T04:55:16.424Z,23.60
2022-10-28T04:59:17.824Z,19.07
2022-10-28T05:03:20.628Z,16.23
2022-10-28T05:07:23.561Z,24.30
2022-10-28T05:11:25.167Z,20.13
2022-10-28T05:15:26.583Z,13.27
2022-10-28T05:19:29.339Z,15.30
2022-10-28T05:23:31.101Z,13.37
2022-10-28T05:27:33.655Z,14.67
2022-10-28T05:31:35.051Z,16.83
2022-10-28T05:35:37.993Z,11.90
2022-10-28T05:39:39.408Z,13.40
2022-10-28T05:43:40.823Z,14.90
2022-10-28T05:47:42.997Z,12.43
2022-10-28T05:51:46.124Z,12.27
2022-10-28T05:55:48.018Z,15.07
2022-10-28T05:59:52.228Z,21.90
2022-10-28T06:03:53.670Z,16.47
2022-10-28T06:07:56.497Z,27.60
2022-10-28T06:11:56.394Z,21.50
2022-10-28T06:15:57.973Z,26.23
2022-10-28T06:19:59.461Z,28.13
2022-10-28T06:24:02.472Z,26.13
2022-10-28T06:28:06.972Z,16.30
2022-10-28T06:32:11.834Z,17.30
2022-10-28T06:36:13.210Z,18.13
2022-10-28T06:40:16.112Z,18.70
2022-10-28T06:44:17.524Z,17.43
2022-10-28T06:48:20.845Z,22.17
2022-10-28T06:52:22.219Z,19.17
2022-10-28T06:56:25.160Z,17.30
2022-10-28T07:00:27.425Z,12.60
2022-10-28T07:04:29.376Z,11.20
2022-10-28T07:08:32.365Z,14.43
2022-10-28T07:12:35.245Z,12.63
2022-10-28T07:16:36.934Z,15.63
2022-10-28T07:20:40.757Z,20.73
2022-10-28T07:24:42.160Z,14.60
2022-10-28T07:28:45.177Z,13.27
2022-10-28T07:32:46.825Z,12.90
2022-10-28T07:36:49.471Z,11.90
2022-10-28T07:40:51.061Z,15.53
2022-10-28T07:44:53.960Z,12.97
2022-10-28T07:48:55.325Z,10.80
2022-10-28T07:52:57.268Z,11.17
2022-10-28T07:56:58.931Z,16.60
2022-10-28T08:01:04.818Z,9.20
2022-10-28T08:05:07.198Z,19.67
2022-10-28T08:09:08.652Z,12.33
2022-10-28T08:13:10.026Z,15.47
2022-10-28T08:17:13.012Z,14.80
2022-10-28T08:21:15.385Z,10.70
2022-10-28T08:25:16.936Z,13.13
2022-10-28T08:29:18.560Z,14.97
2022-10-28T08:33:21.503Z,15.57
2022-10-28T08:37:23.232Z,11.33
2022-10-28T08:41:32.967Z,12.33
2022-10-28T08:45:44.431Z,11.33
2022-10-28T08:49:52.215Z,14.50
2022-10-28T08:53:57.010Z,15.13
2022-10-28T08:58:06.572Z,13.93
2022-10-28T09:02:19.743Z,14.20
2022-10-28T09:06:22.692Z,15.40
2022-10-28T09:10:52.342Z,15.87
2022-10-28T09:15:18.199Z,15.23
2022-10-28T09:19:33.969Z,10.83
2022-10-28T09:23:45.381Z,17.20
2022-10-28T09:27:58.030Z,11.07
2022-10-28T09:32:11.180Z,14.00
2022-10-28T09:36:18.240Z,14.83
2022-10-28T09:40:24.110Z,20.43
2022-10-28T09:44:32.508Z,13.30
2022-10-28T09:48:37.806Z,15.07
2022-10-28T09:52:50.794Z,29.80
2022-10-28T09:56:53.948Z,27.43
2022-10-28T10:00:55.447Z,33.80
2022-10-28T10:04:58.613Z,39.53
2022-10-28T10:09:00.928Z,30.30
2022-10-28T10:13:06.116Z,17.30
2022-10-28T10:17:15.029Z,18.77
2022-10-28T10:21:16.623Z,21.47
2022-10-28T10:25:27.926Z,13.23
2022-10-28T10:29:30.962Z,12.97
2022-10-28T10:33:35.687Z,14.77
2022-10-28T10:37:42.569Z,10.90
2022-10-28T10:41:45.131Z,12.50
2022-10-28T10:45:52.133Z,14.97
2022-10-28T10:50:19.131Z,16.70
2022-10-28T10:54:20.825Z,12.77
2022-10-28T10:58:24.938Z,13.47
2022-10-28T11:02:32.318Z,16.50
2022-10-28T11:06:38.743Z,16.00
2022-10-28T11:10:40.828Z,15.55
2022-10-28T11:14:55.960Z,10.32
2022-10-28T11:19:12.996Z,10.30
2022-10-28T11:23:36.778Z,11.55
2022-10-28T11:27:56.316Z,12.60
2022-10-28T11:32:12.849Z,13.07
2022-10-28T11:36:23.214Z,15.52
2022-10-28T11:40:33.522Z,7.90
2022-10-28T11:44:45.174Z,14.90
2022-10-28T11:49:06.541Z,13.70
2022-10-28T11:53:36.618Z,10.03
2022-10-28T11:57:53.795Z,17.30
2022-10-28T12:02:09.771Z,14.23
2022-10-28T12:06:17.899Z,14.55
2022-10-28T12:10:42.867Z,16.30
2022-10-28T12:14:53.744Z,14.98
2022-10-28T12:19:00.045Z,10.57
2022-10-28T12:23:06.594Z,14.32
2022-10-28T12:27:17.077Z,11.68
2022-10-28T12:31:24.045Z,14.02
2022-10-28T12:35:30.508Z,10.32
2022-10-28T12:39:34.840Z,13.15
2022-10-28T12:43:42.337Z,14.95
2022-10-28T12:47:51.153Z,13.25
2022-10-28T12:51:53.014Z,13.13
2022-10-28T12:55:58.710Z,11.88
2022-10-28T13:00:10.732Z,19.75
2022-10-28T13:04:13.062Z,12.77
2022-10-28T13:08:35.580Z,14.30
2022-10-28T13:12:53.023Z,17.27
2022-10-28T13:17:20.222Z,13.17
2022-10-28T13:21:31.997Z,13.27
2022-10-28T13:25:59.089Z,17.80
2022-10-28T13:30:01.102Z,11.83
2022-10-28T13:34:04.471Z,14.87
2022-10-28T13:38:11.682Z,17.03
2022-10-28T13:42:44.261Z,14.43
2022-10-28T13:47:26.461Z,12.97
2022-10-28T13:51:44.684Z,13.97
2022-10-28T13:55:46.571Z,9.97
2022-10-28T13:59:52.421Z,16.03
2022-10-28T14:03:53.902Z,18.37
2022-10-28T14:07:59.969Z,19.57
2022-10-28T14:12:13.086Z,13.00
2022-10-28T14:16:24.799Z,16.23
2022-10-28T14:20:33.390Z,15.67
2022-10-28T14:24:37.996Z,17.33
2022-10-28T14:28:50.519Z,12.73
2022-10-28T14:33:19.381Z,15.63
2022-10-28T14:37:49.968Z,20.50
2022-10-28T14:42:04.512Z,19.03
2022-10-28T14:46:18.815Z,22.50
2022-10-28T14:50:22.279Z,10.47
2022-10-28T14:54:36.547Z,16.20
2022-10-28T14:58:44.552Z,14.97
2022-10-28T15:02:46.903Z,19.33
2022-10-28T15:06:50.694Z,15.57
2022-10-28T15:10:52.334Z,15.57
2022-10-28T15:14:56.567Z,16.57
2022-10-28T15:18:57.959Z,18.50
2022-10-28T15:23:12.489Z,13.93
2022-10-28T15:27:14.930Z,12.90
2022-10-28T15:31:17.863Z,16.23
2022-10-28T15:35:39.126Z,17.13
2022-10-28T15:39:40.561Z,16.47
2022-10-28T15:43:54.176Z,18.07
2022-10-28T15:47:59.287Z,15.37
2022-10-28T15:52:21.126Z,20.30
2022-10-28T15:56:24.427Z,17.80
2022-10-28T16:00:28.368Z,15.00
2022-10-28T16:04:43.526Z,14.23
2022-10-28T16:08:45.313Z,13.10
2022-10-28T16:12:46.898Z,18.00
2022-10-28T16:16:48.309Z,15.63
2022-10-28T16:20:51.921Z,15.30
2022-10-28T16:24:54.553Z,18.13
2022-10-28T16:28:56.294Z,12.47
2022-10-28T16:32:57.849Z,21.10
2022-10-28T16:37:00.876Z,15.77
2022-10-28T16:41:03.893Z,12.43
2022-10-28T16:45:06.295Z,15.13
2022-10-28T16:49:07.860Z,15.67
2022-10-28T16:53:13.130Z,20.63
2022-10-28T16:57:15.266Z,21.53
2022-10-28T17:01:20.536Z,14.90
2022-10-28T17:05:23.492Z,25.13
2022-10-28T17:09:26.441Z,20.23
2022-10-28T17:13:27.832Z,14.63
2022-10-28T17:17:29.684Z,11.43
2022-10-28T17:21:31.060Z,19.63
2022-10-28T17:25:33.896Z,19.37
2022-10-28T17:29:35.513Z,17.70
2022-10-28T17:33:36.990Z,20.13
2022-10-28T17:37:38.618Z,15.17
2022-10-28T17:41:41.374Z,15.87
2022-10-28T17:45:42.791Z,12.67
2022-10-28T17:49:44.279Z,13.60
2022-10-28T17:53:45.698Z,19.97
2022-10-28T17:57:48.466Z,15.00
2022-10-28T18:01:49.980Z,19.80
2022-10-28T18:05:51.652Z,17.13
2022-10-28T18:09:53.181Z,14.07
2022-10-28T18:13:56.011Z,17.90
2022-10-28T18:17:57.459Z,21.30
2022-10-28T18:21:59.031Z,14.30
2022-10-28T18:26:02.671Z,25.23
2022-10-28T18:30:09.274Z,13.23
2022-10-28T18:34:10.975Z,16.53
2022-10-28T18:38:13.388Z,17.00
2022-10-28T18:42:17.880Z,14.37
2022-10-28T18:46:25.252Z,17.10
2022-10-28T18:50:26.841Z,14.40
2022-10-28T18:54:28.221Z,13.80
2022-10-28T18:58:29.740Z,11.77
2022-10-28T19:02:32.635Z,15.73
2022-10-28T19:06:34.412Z,16.00
2022-10-28T19:10:35.820Z,19.17
2022-10-28T19:14:37.389Z,12.50
2022-10-28T19:18:40.424Z,17.60
2022-10-28T19:22:42.073Z,12.17
2022-10-28T19:26:43.653Z,10.57
2022-10-28T19:30:45.065Z,25.47
2022-10-28T19:34:47.813Z,13.27
2022-10-28T19:38:51.059Z,13.10
2022-10-28T19:46:59.633Z,15.03
2022-10-28T19:51:02.917Z,21.97
2022-10-28T19:55:05.117Z,19.97
2022-10-28T19:59:07.183Z,14.03
2022-10-28T20:03:08.625Z,11.07
2022-10-28T20:07:11.521Z,19.10
2022-10-28T20:11:15.591Z,17.50
2022-10-28T20:15:17.148Z,14.00
2022-10-28T20:19:18.685Z,21.13
2022-10-28T20:23:21.609Z,17.77
2022-10-28T20:27:23.285Z,15.00
2022-10-28T20:31:26.403Z,14.33
2022-10-28T20:35:27.938Z,23.13
2022-10-28T20:39:30.727Z,15.87
2022-10-28T20:43:32.272Z,16.20
2022-10-28T20:47:33.707Z,10.27
2022-10-28T20:51:35.474Z,15.20
2022-10-28T20:55:44.745Z,19.63
2022-10-28T20:59:46.285Z,15.60
2022-10-28T21:03:49.067Z,13.70
2022-10-28T21:07:50.616Z,14.17
2022-10-28T21:11:53.387Z,17.87
2022-10-28T21:15:57.627Z,14.27
2022-10-28T21:24:06.602Z,15.57
2022-10-28T21:28:09.486Z,13.93
2022-10-28T21:32:10.937Z,13.57
2022-10-28T21:36:14.754Z,16.87
2022-10-28T21:40:16.317Z,14.60
2022-10-28T21:44:19.250Z,16.47
2022-10-28T21:48:20.685Z,13.80
2022-10-28T21:52:22.336Z,9.77
2022-10-28T21:56:23.905Z,13.87
2022-10-28T22:00:26.642Z,17.30
2022-10-28T22:04:28.198Z,14.20
2022-10-28T22:08:29.994Z,12.80
2022-10-28T22:12:31.378Z,13.23
2022-10-28T22:16:35.658Z,13.83
2022-10-28T22:20:42.168Z,14.30
2022-10-28T22:24:45.913Z,13.90
2022-10-28T22:28:48.230Z,11.90
2022-10-28T22:32:50.957Z,11.77
2022-10-28T22:36:52.586Z,10.90
2022-10-28T22:41:04.336Z,13.30
2022-10-28T22:45:07.097Z,15.43
2022-10-28T22:49:10.272Z,16.17
2022-10-28T22:53:11.736Z,9.03
2022-10-28T22:57:13.301Z,10.27
2022-10-28T23:01:17.660Z,12.60
2022-10-28T23:05:20.608Z,10.40
2022-10-28T23:09:22.045Z,12.97
2022-10-28T23:13:23.654Z,16.23
2022-10-28T23:17:28.328Z,14.57
2022-10-28T23:21:31.060Z,14.43
2022-10-28T23:25:32.674Z,17.33
2022-10-28T23:29:34.081Z,19.10
2022-10-28T23:33:35.825Z,16.43
2022-10-28T23:37:38.676Z,11.13
2022-10-28T23:41:40.040Z,19.00
2022-10-28T23:45:41.484Z,15.97
2022-10-28T23:49:43.297Z,14.30
2022-10-28T23:53:46.485Z,16.50
2022-10-28T23:57:50.109Z,14.13
